Schoentown, Pennsylvania
Current Conditions -  °F | °C
As of 11:35 PM on Wednesday 26 Nov 2014 (Local Time) from KHZL Reporting Station
Overcast Overcast  
Wind Chill: 20°   Ceiling: 700
Heat Index: 30°   Visibility: 10mi
Dew Point: 28°   Wind: 13mph
Humidity: 93%   Direction: 310°NW
Pressure: 29.9"   Gusts: NA
Location:  40.7044°N, 76.1641°W
Report Text: KHZL 270435Z AUTO 31011KT 10SM OVC007 M01/M02 A2990 RMK AO2
Loading
Personal Weather Stations






























Interactive Weather Map New forecast layout! Learn more

10-Day Weather Forecast

Advertisements
Track Severe Weather on mobile